Time;durP1;ratioP1;P1;durP2;ratioP2;P2;SDS_P1;SDS_P2;PMS_P1;PMS_P2;Temp;Humidity;BMP_temperature;BMP_pressure;BME280_temperature;BME280_humidity;BME280_pressure;Samples;Min_cycle;Max_cycle;Signal;HPM_P1;HPM_P2
2023/04/16 04:01:40;;;;;;;109.65;34.55;;;8.30;99.90;;;;;;5401595;23;20046;-79
2023/04/16 04:04:08;;;;;;;109.30;33.38;;;8.30;99.90;;;;;;4979691;28;20053;-77
2023/04/16 04:06:34;;;;;;;100.78;32.85;;;8.30;99.90;;;;;;4995241;28;20066;-77
2023/04/16 04:08:59;;;;;;;108.20;34.15;;;8.30;99.90;;;;;;4979103;28;20066;-79
2023/04/16 04:11:25;;;;;;;96.57;36.05;;;8.20;99.90;;;;;;4979240;28;20402;-80
2023/04/16 04:13:51;;;;;;;116.82;37.25;;;8.20;99.90;;;;;;4963004;28;20042;-78
2023/04/16 04:16:16;;;;;;;121.03;37.60;;;8.20;99.90;;;;;;4997184;28;20045;-79
2023/04/16 04:18:42;;;;;;;126.93;37.53;;;8.30;99.90;;;;;;4979171;28;20046;-78
2023/04/16 04:21:08;;;;;;;128.75;39.75;;;8.20;99.90;;;;;;4979555;28;20046;-78
2023/04/16 04:23:35;;;;;;;119.25;38.15;;;8.20;99.90;;;;;;4979423;28;20046;-78
2023/04/16 04:26:04;;;;;;;119.55;37.08;;;8.20;99.90;;;;;;4979187;28;20050;-78
2023/04/16 04:28:31;;;;;;;116.28;37.17;;;8.20;99.90;;;;;;4979048;28;20042;-79
2023/04/16 04:30:57;;;;;;;114.03;38.13;;;8.20;99.90;;;;;;4979028;28;20477;-78
2023/04/16 04:33:26;;;;;;;119.15;38.05;;;8.20;99.90;;;;;;4978798;28;20046;-79
2023/04/16 04:35:53;;;;;;;120.93;38.85;;;8.20;99.90;;;;;;4978831;28;20039;-78
2023/04/16 04:38:20;;;;;;;128.80;39.70;;;8.20;99.90;;;;;;4978405;28;20053;-78
2023/04/16 04:40:47;;;;;;;126.70;39.45;;;8.20;99.90;;;;;;4962056;28;20043;-78
2023/04/16 04:43:13;;;;;;;119.28;37.58;;;8.30;99.90;;;;;;4995622;28;20034;-79
2023/04/16 04:45:39;;;;;;;113.85;37.75;;;8.30;99.90;;;;;;4979910;28;20058;-78
2023/04/16 04:48:06;;;;;;;120.10;38.92;;;8.30;99.90;;;;;;4979529;28;20096;-76
2023/04/16 04:50:32;;;;;;;122.28;36.33;;;8.30;99.90;;;;;;5002507;28;20482;-77
2023/04/16 04:52:58;;;;;;;116.57;38.80;;;8.30;99.90;;;;;;4968074;28;20119;-79
2023/04/16 04:55:23;;;;;;;125.13;39.58;;;8.30;99.90;;;;;;5000740;28;20510;-76
2023/04/16 04:57:49;;;;;;;122.60;38.40;;;8.40;99.90;;;;;;5001739;28;20041;-76
2023/04/16 05:00:16;;;;;;;117.40;38.72;;;8.30;99.90;;;;;;5016592;28;20077;-79
2023/04/16 05:02:41;;;;;;;131.20;38.90;;;8.40;99.90;;;;;;4997809;28;20053;-80
2023/04/16 05:05:07;;;;;;;124.32;37.30;;;8.40;99.90;;;;;;4997904;28;20092;-79
2023/04/16 05:07:33;;;;;;;125.43;39.67;;;8.40;99.90;;;;;;4997536;28;20037;-78
2023/04/16 05:09:59;;;;;;;137.40;40.00;;;8.40;99.90;;;;;;4997795;28;20448;-78
2023/04/16 05:12:25;;;;;;;123.15;37.67;;;8.40;99.90;;;;;;4998362;28;20063;-78
2023/04/16 05:14:51;;;;;;;123.63;36.10;;;8.40;99.90;;;;;;4997342;28;20042;-78
2023/04/16 05:17:16;;;;;;;126.63;38.92;;;8.40;99.90;;;;;;4997312;28;20417;-79
2023/04/16 05:19:42;;;;;;;119.75;36.88;;;8.50;99.90;;;;;;4997141;28;20093;-79
2023/04/16 05:22:08;;;;;;;125.72;36.60;;;8.50;99.90;;;;;;4997327;28;20044;-79
2023/04/16 05:24:33;;;;;;;116.43;36.92;;;8.50;99.90;;;;;;5015079;28;20053;-79
2023/04/16 05:27:00;;;;;;;104.40;34.78;;;8.50;99.90;;;;;;4996583;28;20378;-79
2023/04/16 05:29:26;;;;;;;104.53;34.17;;;8.50;99.90;;;;;;4997465;28;20053;-78
2023/04/16 05:31:51;;;;;;;97.85;32.30;;;8.50;99.90;;;;;;4997023;28;20038;-80
2023/04/16 05:34:17;;;;;;;106.65;35.05;;;8.60;99.90;;;;;;5014747;28;20112;-79
2023/04/16 05:36:43;;;;;;;110.50;35.40;;;8.60;99.90;;;;;;4997133;28;20401;-79
2023/04/16 05:39:09;;;;;;;108.20;35.28;;;8.60;99.90;;;;;;4997111;28;20076;-79
2023/04/16 05:41:35;;;;;;;101.43;34.30;;;8.60;99.90;;;;;;4996848;28;20034;-78
2023/04/16 05:44:00;;;;;;;100.65;31.98;;;8.60;99.90;;;;;;4997827;28;20113;-79
2023/04/16 05:46:26;;;;;;;88.88;31.67;;;8.70;99.90;;;;;;4996860;28;20054;-77
2023/04/16 05:48:51;;;;;;;97.07;32.38;;;8.70;99.90;;;;;;4996651;28;20034;-79
2023/04/16 05:51:17;;;;;;;79.97;30.27;;;8.60;99.90;;;;;;4996711;28;20124;-78
2023/04/16 05:53:43;;;;;;;88.68;31.40;;;8.70;99.90;;;;;;4995799;28;20054;-79
2023/04/16 05:56:09;;;;;;;76.13;30.48;;;8.70;99.90;;;;;;4980612;28;20038;-79
2023/04/16 05:58:34;;;;;;;79.93;29.00;;;8.70;99.90;;;;;;4996591;28;20088;-78
2023/04/16 06:01:00;;;;;;;85.10;30.63;;;8.70;99.90;;;;;;4980603;28;20045;-78
2023/04/16 06:03:26;;;;;;;78.32;28.38;;;8.70;99.90;;;;;;4996580;28;20477;-78
2023/04/16 06:05:52;;;;;;;87.90;29.63;;;8.80;99.90;;;;;;4996860;28;20097;-78
2023/04/16 06:08:18;;;;;;;104.28;31.33;;;8.80;99.90;;;;;;4996820;28;20120;-80
2023/04/16 06:10:47;;;;;;;93.60;29.85;;;8.80;99.90;;;;;;4996755;28;20042;-79
2023/04/16 06:13:13;;;;;;;91.63;28.80;;;8.80;99.90;;;;;;4996637;28;20038;-78
2023/04/16 06:15:39;;;;;;;83.07;28.20;;;8.80;99.90;;;;;;4996420;28;20508;-78
2023/04/16 06:18:04;;;;;;;87.88;27.20;;;8.80;99.90;;;;;;4981045;28;20043;-79
2023/04/16 06:20:30;;;;;;;94.45;30.80;;;8.90;99.90;;;;;;4977015;28;20035;-79
2023/04/16 06:22:56;;;;;;;83.80;29.90;;;8.90;99.90;;;;;;4976802;28;20069;-80
2023/04/16 06:25:22;;;;;;;85.25;29.95;;;8.80;99.90;;;;;;4977342;28;20053;-78
2023/04/16 06:27:48;;;;;;;83.93;28.05;;;8.90;99.90;;;;;;4976888;28;20046;-79
2023/04/16 06:30:16;;;;;;;84.18;27.60;;;8.90;99.90;;;;;;4976832;28;20049;-78
2023/04/16 06:32:42;;;;;;;83.05;27.58;;;8.90;99.90;;;;;;4960758;28;20046;-79
2023/04/16 06:35:08;;;;;;;95.28;28.58;;;8.90;99.90;;;;;;4976939;28;20454;-78
2023/04/16 06:37:34;;;;;;;91.45;28.30;;;8.90;99.90;;;;;;4976533;28;20065;-78
2023/04/16 06:40:00;;;;;;;89.85;27.33;;;8.90;99.90;;;;;;4994330;28;20525;-78
2023/04/16 06:42:25;;;;;;;85.93;26.60;;;8.90;99.90;;;;;;4977090;28;20041;-78
2023/04/16 06:44:51;;;;;;;90.15;27.90;;;8.90;99.90;;;;;;4977283;28;20474;-79
2023/04/16 06:47:17;;;;;;;76.13;26.60;;;9.00;99.90;;;;;;4976935;28;20046;-79
2023/04/16 06:49:42;;;;;;;76.57;25.17;;;9.00;99.90;;;;;;4976977;28;20108;-78
2023/04/16 06:52:08;;;;;;;79.15;26.85;;;9.00;99.90;;;;;;4976722;28;20043;-80
2023/04/16 06:54:34;;;;;;;80.38;26.20;;;9.00;99.90;;;;;;4976811;28;20057;-79
2023/04/16 06:56:59;;;;;;;73.05;24.27;;;9.10;99.90;;;;;;4960588;28;20049;-78
2023/04/16 06:59:25;;;;;;;76.70;27.60;;;9.10;99.90;;;;;;4976843;28;20053;-79
2023/04/16 07:01:51;;;;;;;73.78;26.35;;;9.10;99.90;;;;;;4976001;28;20050;-78
2023/04/16 07:04:17;;;;;;;71.35;25.40;;;9.20;99.90;;;;;;4976929;28;20080;-78
2023/04/16 07:06:42;;;;;;;75.43;25.80;;;9.30;99.90;;;;;;4997999;28;20043;-78
2023/04/16 07:09:08;;;;;;;63.53;24.08;;;9.30;99.90;;;;;;4964203;28;20038;-79
2023/04/16 07:11:34;;;;;;;63.40;23.58;;;9.30;99.90;;;;;;4980313;28;20054;-78
2023/04/16 07:14:00;;;;;;;68.80;24.33;;;9.40;99.90;;;;;;4980228;28;20061;-79
2023/04/16 07:16:25;;;;;;;65.45;24.40;;;9.50;99.90;;;;;;4997997;28;20117;-78
2023/04/16 07:18:51;;;;;;;77.20;25.17;;;9.50;99.90;;;;;;4980230;28;20047;-78
2023/04/16 07:21:17;;;;;;;64.00;24.40;;;9.50;99.90;;;;;;4997463;28;20066;-78
2023/04/16 07:23:42;;;;;;;74.35;23.73;;;9.60;99.90;;;;;;4979456;28;20057;-79
2023/04/16 07:26:09;;;;;;;55.85;23.08;;;9.60;99.90;;;;;;4979972;28;20074;-80
2023/04/16 07:28:34;;;;;;;64.85;24.38;;;9.70;99.90;;;;;;4980233;28;20141;-78
2023/04/16 07:31:00;;;;;;;71.05;22.65;;;9.80;99.90;;;;;;4980046;28;20541;-79
2023/04/16 07:33:26;;;;;;;61.17;23.35;;;9.90;99.90;;;;;;4980006;28;20062;-79
2023/04/16 07:35:51;;;;;;;66.88;24.35;;;9.90;99.90;;;;;;4980140;28;20038;-79
2023/04/16 07:38:17;;;;;;;58.40;22.85;;;10.00;99.90;;;;;;4979957;28;20045;-78
2023/04/16 07:40:43;;;;;;;70.20;24.92;;;10.10;99.90;;;;;;4980092;28;20039;-79
2023/04/16 07:43:09;;;;;;;62.08;24.00;;;10.10;99.90;;;;;;4997570;28;20498;-78
2023/04/16 07:45:35;;;;;;;59.45;24.65;;;10.10;99.90;;;;;;4979622;28;20050;-77
2023/04/16 07:48:00;;;;;;;55.65;23.98;;;10.10;99.90;;;;;;4979314;28;20122;-79
2023/04/16 07:50:26;;;;;;;70.30;24.40;;;10.20;99.90;;;;;;4980307;28;20050;-78
2023/04/16 07:52:52;;;;;;;62.10;23.80;;;10.20;99.90;;;;;;4997361;28;20065;-79
2023/04/16 07:55:18;;;;;;;55.63;23.35;;;10.20;99.90;;;;;;4997461;28;20473;-79
2023/04/16 07:57:44;;;;;;;53.45;23.42;;;10.40;99.90;;;;;;4979694;28;20109;-78
2023/04/16 08:00:10;;;;;;;62.72;23.98;;;10.50;99.90;;;;;;4979832;28;20042;-79
2023/04/16 08:02:36;;;;;;;59.92;23.65;;;10.60;99.90;;;;;;4979290;28;20042;-79
2023/04/16 08:05:02;;;;;;;60.85;23.00;;;10.70;99.90;;;;;;4990402;28;20050;-77
2023/04/16 08:07:27;;;;;;;60.88;23.27;;;10.70;99.90;;;;;;5008186;28;20038;-81
2023/04/16 08:09:53;;;;;;;57.13;23.63;;;10.80;99.90;;;;;;4987396;28;20548;-78
2023/04/16 08:12:19;;;;;;;56.90;22.08;;;10.80;99.90;;;;;;5004967;28;20042;-78
2023/04/16 08:14:46;;;;;;;51.05;21.77;;;10.90;99.90;;;;;;4988749;28;20048;-78
2023/04/16 08:17:12;;;;;;;53.55;22.02;;;11.00;99.90;;;;;;4972074;28;20034;-78
2023/04/16 08:19:38;;;;;;;60.13;23.27;;;11.10;99.90;;;;;;5005151;28;20038;-78
2023/04/16 08:22:03;;;;;;;58.17;22.35;;;11.30;99.90;;;;;;4990243;28;20041;-79
2023/04/16 08:24:29;;;;;;;50.53;20.13;;;11.40;99.90;;;;;;5006488;28;20048;-78
2023/04/16 08:26:54;;;;;;;52.75;21.75;;;11.40;99.90;;;;;;4987973;28;20046;-78
2023/04/16 08:29:20;;;;;;;65.20;21.13;;;11.60;99.90;;;;;;4999756;28;20038;-78
2023/04/16 08:31:46;;;;;;;53.00;20.42;;;11.60;99.90;;;;;;5005007;28;20125;-77
2023/04/16 08:34:12;;;;;;;53.85;21.00;;;11.70;99.90;;;;;;4985594;28;20042;-78
2023/04/16 08:36:40;;;;;;;50.28;19.38;;;11.60;99.90;;;;;;4986699;28;20038;-80
2023/04/16 08:39:05;;;;;;;53.03;19.60;;;11.60;99.90;;;;;;4963175;28;20448;-79
2023/04/16 08:41:35;;;;;;;42.47;18.70;;;11.60;99.90;;;;;;4962960;28;20126;-79
2023/04/16 08:44:06;;;;;;;43.53;19.35;;;11.60;99.90;;;;;;4996313;28;20048;-79
2023/04/16 08:46:37;;;;;;;51.33;19.10;;;11.60;99.90;;;;;;4979238;28;20517;-78
2023/04/16 08:49:06;;;;;;;40.50;17.90;;;11.60;99.90;;;;;;4979277;28;20093;-79
2023/04/16 08:51:35;;;;;;;44.40;18.13;;;11.70;99.90;;;;;;4996354;28;20036;-79
2023/04/16 08:54:11;;;;;;;47.47;17.58;;;11.80;99.90;;;;;;4995696;28;20494;-79
2023/04/16 08:56:37;;;;;;;41.55;18.30;;;11.90;99.90;;;;;;4997133;28;20042;-80
2023/04/16 08:59:04;;;;;;;45.35;17.45;;;12.00;99.90;;;;;;4998383;28;20045;-79
2023/04/16 09:01:32;;;;;;;45.75;17.88;;;12.10;99.90;;;;;;4998148;28;20448;-79
2023/04/16 09:04:01;;;;;;;43.25;16.98;;;12.20;99.90;;;;;;4997904;28;20045;-77
2023/04/16 09:06:27;;;;;;;41.42;17.95;;;12.20;99.90;;;;;;4997851;28;20509;-80
2023/04/16 09:08:54;;;;;;;43.35;18.15;;;12.30;99.90;;;;;;5015205;28;20038;-77
2023/04/16 09:11:20;;;;;;;50.90;19.35;;;12.20;99.90;;;;;;4997766;28;20056;-79
2023/04/16 09:13:46;;;;;;;42.40;18.23;;;12.20;99.90;;;;;;5009696;28;20123;-79
2023/04/16 09:16:13;;;;;;;42.45;17.20;;;12.20;99.90;;;;;;4988371;28;20045;-79
2023/04/16 09:18:39;;;;;;;42.08;16.45;;;12.20;99.90;;;;;;5006535;28;20041;-77
2023/04/16 09:21:06;;;;;;;39.17;17.80;;;12.40;99.90;;;;;;4988643;28;20129;-78
2023/04/16 09:23:32;;;;;;;45.30;18.15;;;12.60;99.90;;;;;;4989731;28;20112;-78
2023/04/16 09:25:58;;;;;;;42.00;16.42;;;12.70;99.90;;;;;;4988979;28;20478;-78
2023/04/16 09:28:42;;;;;;;44.25;16.30;;;12.90;99.90;;;;;;4986525;28;20045;-78
2023/04/16 09:31:15;;;;;;;39.25;17.38;;;13.00;99.90;;;;;;4982871;28;20546;-79
2023/04/16 09:33:42;;;;;;;46.38;17.30;;;13.10;99.90;;;;;;4995396;28;20545;-80
2023/04/16 09:36:09;;;;;;;41.70;17.55;;;13.20;99.90;;;;;;5005065;28;20038;-81
2023/04/16 09:39:02;;;;;;;44.08;16.63;;;13.20;99.90;;;;;;5006799;28;20503;-79
2023/04/16 09:41:30;;;;;;;35.50;15.90;;;13.10;99.90;;;;;;4957977;28;20047;-79
2023/04/16 09:44:03;;;;;;;44.80;19.33;;;13.00;99.90;;;;;;4961382;28;20058;-79
2023/04/16 09:46:39;;;;;;;43.75;17.80;;;12.90;99.90;;;;;;4983997;28;20070;-77
2023/04/16 09:49:16;;;;;;;39.35;17.02;;;12.90;99.90;;;;;;4970904;28;20043;-76
2023/04/16 09:51:43;;;;;;;38.50;16.17;;;12.90;99.90;;;;;;4977183;28;20042;-78
2023/04/16 09:54:09;;;;;;;39.08;16.25;;;13.00;99.90;;;;;;4976068;28;20089;-80
2023/04/16 09:56:45;;;;;;;40.35;16.05;;;12.90;99.90;;;;;;4958999;28;20050;-79
2023/04/16 09:59:20;;;;;;;43.38;17.00;;;13.00;99.90;;;;;;4975998;28;20053;-76
2023/04/16 10:02:07;;;;;;;35.65;15.90;;;13.00;99.90;;;;;;4975441;28;20085;-78
2023/04/16 10:04:45;;;;;;;44.53;17.02;;;12.90;99.90;;;;;;4943159;28;20194;-80
2023/04/16 10:07:12;;;;;;;43.65;16.75;;;12.90;99.90;;;;;;4957333;28;20050;-77
2023/04/16 10:09:38;;;;;;;43.85;18.70;;;13.10;99.90;;;;;;4957108;28;20481;-77
2023/04/16 10:12:05;;;;;;;43.05;16.60;;;13.10;99.90;;;;;;4956172;28;20102;-79
2023/04/16 10:14:32;;;;;;;38.80;17.20;;;13.20;99.90;;;;;;4973128;28;20042;-78
2023/04/16 10:16:59;;;;;;;42.78;16.85;;;13.10;99.90;;;;;;4957243;28;20363;-77
2023/04/16 10:19:26;;;;;;;40.38;17.48;;;13.30;99.90;;;;;;4956685;28;20081;-78
2023/04/16 10:21:53;;;;;;;39.08;17.10;;;13.50;99.90;;;;;;4974960;28;20035;-79
2023/04/16 10:24:19;;;;;;;42.03;18.27;;;13.60;99.90;;;;;;4975255;28;20122;-81
2023/04/16 10:26:48;;;;;;;37.08;16.38;;;13.70;99.90;;;;;;4974125;28;20094;-78
2023/04/16 10:29:14;;;;;;;34.20;15.73;;;13.80;99.90;;;;;;4975495;28;20078;-81
2023/04/16 10:31:41;;;;;;;40.75;17.98;;;13.90;99.90;;;;;;4957288;28;20487;-77
2023/04/16 10:34:08;;;;;;;39.83;16.42;;;13.90;99.90;;;;;;4975096;28;20043;-77
2023/04/16 10:36:37;;;;;;;36.90;16.48;;;14.00;99.90;;;;;;4957602;28;20093;-76
2023/04/16 10:39:03;;;;;;;35.50;16.10;;;14.00;99.90;;;;;;4957477;28;20042;-77
2023/04/16 10:41:32;;;;;;;37.95;15.77;;;14.10;99.90;;;;;;4961234;28;20045;-80
2023/04/16 10:44:08;;;;;;;37.92;16.13;;;14.30;99.90;;;;;;4978801;28;20482;-81
2023/04/16 10:46:38;;;;;;;39.05;15.85;;;14.30;99.90;;;;;;4961311;28;20494;-78
2023/04/16 10:49:18;;;;;;;32.65;14.93;;;14.40;99.90;;;;;;4978985;28;20061;-77
2023/04/16 10:51:51;;;;;;;37.83;16.35;;;14.50;99.90;;;;;;4977777;28;20093;-81
2023/04/16 10:54:18;;;;;;;40.10;16.85;;;14.60;99.90;;;;;;4960897;28;20130;-80
2023/04/16 10:56:45;;;;;;;36.75;15.80;;;14.60;99.90;;;;;;4961342;28;20125;-79
2023/04/16 10:59:11;;;;;;;37.55;16.27;;;14.50;99.90;;;;;;4976960;28;20153;-77
2023/04/16 11:01:45;;;;;;;38.80;15.38;;;14.30;99.90;;;;;;4961000;28;20058;-81
2023/04/16 11:04:20;;;;;;;41.40;16.15;;;14.30;99.90;;;;;;4960878;28;20503;-79
2023/04/16 11:07:14;;;;;;;38.45;16.80;;;14.30;99.90;;;;;;4945111;28;20047;-78
2023/04/16 11:09:46;;;;;;;39.53;17.27;;;14.20;99.90;;;;;;4961995;28;20382;-79
2023/04/16 11:12:15;;;;;;;34.70;15.60;;;14.30;99.90;;;;;;4978265;28;20109;-80
2023/04/16 11:14:41;;;;;;;39.35;16.48;;;14.30;99.90;;;;;;4960783;28;20043;-77
2023/04/16 11:17:07;;;;;;;38.90;16.13;;;14.30;99.90;;;;;;4960625;28;20479;-79
2023/04/16 11:19:36;;;;;;;36.60;15.48;;;14.30;99.90;;;;;;4960714;28;20035;-79
2023/04/16 11:22:02;;;;;;;38.15;16.05;;;14.40;99.90;;;;;;4944882;28;20115;-78
2023/04/16 11:24:31;;;;;;;33.65;15.27;;;14.50;99.90;;;;;;4960735;28;20084;-78
2023/04/16 11:26:57;;;;;;;34.28;15.10;;;14.60;99.90;;;;;;4977112;28;20042;-80
2023/04/16 11:29:23;;;;;;;39.10;15.57;;;14.60;99.90;;;;;;4960539;28;20462;-79
2023/04/16 11:31:53;;;;;;;43.45;17.38;;;14.60;99.90;;;;;;4977854;28;20035;-80
2023/04/16 11:34:19;;;;;;;44.05;18.00;;;14.40;99.90;;;;;;4978191;28;20049;-80
2023/04/16 11:36:46;;;;;;;37.95;17.10;;;14.30;99.90;;;;;;4960664;28;20485;-79
2023/04/16 11:39:12;;;;;;;35.90;16.70;;;14.30;99.90;;;;;;4976984;28;20097;-79
2023/04/16 11:41:48;;;;;;;41.60;16.75;;;14.30;99.90;;;;;;4960440;28;20426;-81
2023/04/16 11:44:34;;;;;;;34.10;15.77;;;14.20;99.90;;;;;;4977051;28;20130;-78
2023/04/16 11:47:06;;;;;;;38.33;16.38;;;14.30;99.90;;;;;;4977617;28;20066;-80
2023/04/16 11:49:31;;;;;;;41.15;16.95;;;14.20;99.90;;;;;;4960719;28;20117;-80
2023/04/16 11:51:57;;;;;;;37.25;16.35;;;14.20;99.90;;;;;;4960199;28;20077;-80
2023/04/16 11:54:24;;;;;;;35.55;16.30;;;14.10;99.90;;;;;;4960076;28;20047;-78
2023/04/16 11:56:52;;;;;;;43.47;17.92;;;14.10;99.90;;;;;;4944056;28;20438;-80
2023/04/16 11:59:20;;;;;;;33.03;15.93;;;14.10;99.90;;;;;;4960432;28;20057;-78
2023/04/16 12:01:48;;;;;;;33.45;17.30;;;14.10;99.90;;;;;;4959745;28;20047;-78
2023/04/16 12:04:15;;;;;;;36.45;16.85;;;14.10;99.90;;;;;;4977711;28;20122;-82
2023/04/16 12:07:03;;;;;;;40.45;17.70;;;14.10;99.90;;;;;;4977832;28;20062;-80
2023/04/16 12:09:29;;;;;;;39.78;15.93;;;14.10;99.90;;;;;;4976444;28;20367;-80
2023/04/16 12:11:55;;;;;;;34.90;17.80;;;14.10;99.90;;;;;;4944635;28;20112;-78
2023/04/16 12:14:22;;;;;;;39.90;17.05;;;14.20;99.90;;;;;;4976920;28;20038;-79
2023/04/16 12:16:48;;;;;;;39.00;17.08;;;14.20;99.90;;;;;;4959486;28;20191;-81
2023/04/16 12:19:14;;;;;;;39.70;17.10;;;14.30;99.90;;;;;;4943727;28;20179;-80
2023/04/16 12:21:47;;;;;;;37.42;17.20;;;14.40;99.90;;;;;;4959583;28;20109;-81
2023/04/16 12:24:15;;;;;;;40.60;18.02;;;14.40;99.90;;;;;;4977236;28;20046;-80
2023/04/16 12:26:44;;;;;;;37.08;18.35;;;14.40;99.90;;;;;;4977058;28;20035;-80
2023/04/16 12:29:18;;;;;;;33.55;17.23;;;14.40;99.90;;;;;;4959646;28;20430;-79
2023/04/16 12:31:44;;;;;;;30.30;16.27;;;14.60;99.90;;;;;;4959593;28;20046;-79
2023/04/16 12:34:10;;;;;;;34.60;16.95;;;14.80;99.90;;;;;;4975476;28;20077;-81
2023/04/16 12:36:36;;;;;;;30.63;15.75;;;15.00;99.90;;;;;;4976659;28;20483;-81
2023/04/16 12:39:02;;;;;;;30.52;16.25;;;15.10;99.90;;;;;;4959417;28;20045;-80
2023/04/16 12:41:27;;;;;;;40.90;17.65;;;15.20;99.90;;;;;;4976815;28;20034;-78
2023/04/16 12:44:03;;;;;;;32.55;16.80;;;15.40;99.90;;;;;;4959224;28;20046;-82
2023/04/16 12:46:28;;;;;;;34.05;17.42;;;15.40;99.90;;;;;;4976745;28;20049;-79
2023/04/16 12:48:56;;;;;;;33.40;16.75;;;15.40;99.90;;;;;;4959294;28;20145;-81
2023/04/16 12:51:22;;;;;;;34.80;17.00;;;15.50;99.90;;;;;;4943082;28;20483;-81
2023/04/16 12:53:48;;;;;;;35.35;16.55;;;15.40;99.90;;;;;;4958727;28;20042;-80
2023/04/16 12:56:14;;;;;;;35.70;17.48;;;15.20;99.90;;;;;;4958891;28;20038;-79
2023/04/16 12:58:40;;;;;;;31.90;16.17;;;15.20;99.90;;;;;;4974908;28;20121;-81
2023/04/16 13:01:05;;;;;;;31.08;17.05;;;15.20;99.90;;;;;;4958051;28;20558;-76
2023/04/16 13:03:31;;;;;;;32.65;17.48;;;15.30;99.90;;;;;;4957545;28;20042;-80
2023/04/16 13:05:56;;;;;;;37.00;16.73;;;15.30;99.90;;;;;;4942257;28;20039;-79
2023/04/16 13:08:22;;;;;;;32.25;16.80;;;15.40;99.90;;;;;;4975490;28;20035;-80
2023/04/16 13:10:48;;;;;;;27.83;15.05;;;15.50;99.90;;;;;;4958067;28;20042;-79
2023/04/16 13:13:15;;;;;;;36.45;17.23;;;15.50;99.90;;;;;;4975803;28;20232;-78
2023/04/16 13:15:40;;;;;;;37.70;16.48;;;15.30;99.90;;;;;;4957881;28;20094;-81
2023/04/16 13:18:06;;;;;;;32.83;16.52;;;15.20;99.90;;;;;;4975434;28;20043;-78
2023/04/16 13:20:32;;;;;;;32.53;16.05;;;15.10;99.90;;;;;;4958146;28;20089;-78
2023/04/16 13:22:58;;;;;;;34.42;15.88;;;15.20;99.90;;;;;;4958175;28;20074;-80
2023/04/16 13:25:24;;;;;;;34.45;15.80;;;15.10;99.90;;;;;;4957942;28;20086;-79
2023/04/16 13:27:49;;;;;;;32.60;16.23;;;15.30;99.90;;;;;;4958161;28;20055;-80
2023/04/16 13:30:15;;;;;;;31.88;15.88;;;15.20;99.90;;;;;;4957954;28;20039;-79
2023/04/16 13:32:41;;;;;;;35.10;15.32;;;15.30;99.90;;;;;;4975349;28;20042;-81
2023/04/16 13:35:09;;;;;;;27.33;15.00;;;15.40;99.90;;;;;;4957701;28;20043;-77
2023/04/16 13:37:35;;;;;;;29.13;15.70;;;15.90;99.90;;;;;;4975887;28;20398;-79
2023/04/16 13:40:00;;;;;;;29.75;16.30;;;16.10;99.90;;;;;;4975929;28;20034;-80
2023/04/16 13:42:27;;;;;;;27.80;15.52;;;16.10;99.90;;;;;;4975569;28;20082;-79
2023/04/16 13:44:53;;;;;;;35.15;16.30;;;16.00;99.90;;;;;;4958059;28;20105;-82
2023/04/16 13:47:19;;;;;;;32.88;16.75;;;16.20;99.90;;;;;;4958721;28;20043;-81
2023/04/16 13:49:46;;;;;;;29.17;16.52;;;16.20;99.90;;;;;;4957839;28;20505;-82
2023/04/16 13:52:12;;;;;;;29.38;16.67;;;16.20;99.90;;;;;;4957897;28;20043;-77
2023/04/16 13:54:37;;;;;;;28.42;15.93;;;16.30;99.90;;;;;;4958127;28;20128;-82
2023/04/16 13:57:03;;;;;;;30.10;16.33;;;16.30;99.90;;;;;;4942294;28;20039;-80
2023/04/16 13:59:29;;;;;;;31.00;16.55;;;16.10;99.90;;;;;;4958241;28;20049;-79
2023/04/16 14:01:54;;;;;;;31.27;16.45;;;16.00;99.90;;;;;;4975175;28;20043;-79
2023/04/16 14:04:21;;;;;;;31.48;16.30;;;16.20;99.90;;;;;;4958260;28;20463;-79
2023/04/16 14:06:48;;;;;;;29.50;16.52;;;16.00;99.90;;;;;;4975957;28;20057;-79
2023/04/16 14:09:14;;;;;;;29.17;16.20;;;15.90;99.90;;;;;;4958406;28;20520;-82
2023/04/16 14:11:40;;;;;;;24.17;14.55;;;15.80;99.90;;;;;;4957734;28;20402;-77
2023/04/16 14:14:06;;;;;;;26.88;15.55;;;16.00;99.90;;;;;;4957106;28;20047;-83
2023/04/16 14:16:33;;;;;;;26.63;15.43;;;16.10;99.90;;;;;;4975254;28;20038;-79
2023/04/16 14:18:59;;;;;;;28.25;15.13;;;16.10;99.90;;;;;;4957951;28;20049;-78
2023/04/16 14:21:25;;;;;;;26.10;14.98;;;16.10;99.90;;;;;;4958021;28;20086;-80
2023/04/16 14:23:51;;;;;;;30.50;15.20;;;16.10;99.90;;;;;;4957841;28;20046;-79
2023/04/16 14:26:17;;;;;;;26.35;15.48;;;16.00;99.90;;;;;;4974138;28;20043;-79
2023/04/16 14:28:43;;;;;;;25.00;14.90;;;16.00;99.90;;;;;;4957768;28;20038;-79
2023/04/16 14:31:09;;;;;;;27.38;16.10;;;15.80;99.90;;;;;;4957447;28;20091;-79
2023/04/16 14:33:35;;;;;;;27.23;16.45;;;15.80;99.90;;;;;;4957549;28;20400;-79
2023/04/16 14:36:02;;;;;;;27.30;16.13;;;15.70;99.90;;;;;;4958278;28;20518;-83
2023/04/16 14:38:27;;;;;;;31.48;15.77;;;15.60;99.90;;;;;;4973164;28;20435;-79
2023/04/16 14:40:54;;;;;;;26.90;15.73;;;15.50;99.90;;;;;;4974780;28;20097;-81
2023/04/16 14:43:19;;;;;;;31.10;15.98;;;15.50;99.90;;;;;;4958544;28;20449;-81
2023/04/16 14:45:45;;;;;;;31.70;17.73;;;15.60;99.90;;;;;;4957711;28;20081;-80
2023/04/16 14:48:11;;;;;;;26.52;16.40;;;15.70;99.90;;;;;;4957336;28;20134;-78
2023/04/16 14:50:37;;;;;;;31.10;16.00;;;15.60;99.90;;;;;;4957686;28;20050;-77
2023/04/16 14:53:04;;;;;;;24.50;14.00;;;15.60;99.90;;;;;;4957611;28;20055;-80
2023/04/16 14:55:31;;;;;;;25.55;15.23;;;15.60;99.90;;;;;;4974958;28;20047;-80
2023/04/16 14:57:57;;;;;;;27.50;15.18;;;15.60;99.90;;;;;;4973589;28;20046;-82
2023/04/16 15:00:23;;;;;;;29.02;15.80;;;15.50;99.90;;;;;;4975203;28;20031;-79
2023/04/16 15:02:48;;;;;;;22.52;13.82;;;15.40;99.90;;;;;;4957126;28;20509;-79
2023/04/16 15:05:14;;;;;;;28.55;15.20;;;15.50;99.90;;;;;;4957815;28;20046;-82
2023/04/16 15:07:40;;;;;;;28.77;15.30;;;15.60;99.90;;;;;;4957601;28;20434;-80
2023/04/16 15:10:08;;;;;;;24.95;14.57;;;16.00;99.90;;;;;;4957400;28;20093;-79
2023/04/16 15:12:33;;;;;;;22.88;13.68;;;16.20;99.90;;;;;;4957911;28;20431;-81
2023/04/16 15:14:59;;;;;;;27.00;14.80;;;16.30;99.90;;;;;;4974718;28;20043;-80
2023/04/16 15:17:25;;;;;;;26.80;13.95;;;16.50;99.90;;;;;;4957717;28;20042;-79
2023/04/16 15:19:51;;;;;;;23.88;13.32;;;16.60;99.90;;;;;;4957469;28;20034;-80
2023/04/16 15:22:17;;;;;;;23.80;13.98;;;17.00;99.90;;;;;;4973303;28;20043;-79
2023/04/16 15:24:43;;;;;;;23.67;13.50;;;17.30;99.90;;;;;;4957208;28;20096;-77
2023/04/16 15:27:08;;;;;;;22.77;13.07;;;17.50;99.90;;;;;;4959736;28;20198;-80
2023/04/16 15:29:34;;;;;;;23.67;14.52;;;17.60;99.90;;;;;;4960886;28;20061;-80
2023/04/16 15:32:00;;;;;;;22.02;13.20;;;17.70;99.90;;;;;;4960930;28;20089;-80
2023/04/16 15:34:26;;;;;;;23.98;13.15;;;17.60;99.90;;;;;;4960732;28;20035;-82
2023/04/16 15:36:52;;;;;;;20.75;13.82;;;17.40;99.90;;;;;;4976912;28;20075;-78
2023/04/16 15:39:19;;;;;;;25.20;13.88;;;17.30;99.90;;;;;;4978552;28;20066;-81
2023/04/16 15:41:45;;;;;;;24.67;13.60;;;17.40;99.90;;;;;;4944857;28;20043;-83
2023/04/16 15:44:10;;;;;;;22.80;13.07;;;17.50;99.90;;;;;;4961003;28;20046;-79
2023/04/16 15:46:37;;;;;;;23.25;14.50;;;17.20;99.90;;;;;;4961119;28;20038;-80
2023/04/16 15:49:02;;;;;;;20.80;13.68;;;17.10;99.90;;;;;;4977918;28;20098;-79
2023/04/16 15:51:30;;;;;;;23.48;14.45;;;16.90;99.90;;;;;;4960194;28;20038;-82
2023/04/16 15:53:56;;;;;;;25.15;13.70;;;16.80;99.90;;;;;;4960666;28;20072;-79
2023/04/16 15:56:22;;;;;;;25.08;13.90;;;16.90;99.90;;;;;;4977852;28;20034;-77
2023/04/16 15:58:48;;;;;;;29.63;15.38;;;17.00;99.90;;;;;;4976796;28;20486;-80
2023/04/16 16:01:14;;;;;;;27.80;14.15;;;17.20;99.90;;;;;;4960848;28;20050;-78
2023/04/16 16:03:39;;;;;;;24.83;14.73;;;17.30;99.90;;;;;;4960306;28;20043;-77
2023/04/16 16:06:07;;;;;;;25.83;14.73;;;17.10;99.90;;;;;;4977822;28;20066;-79
2023/04/16 16:08:36;;;;;;;21.75;14.50;;;16.90;99.90;;;;;;4960327;28;20402;-80
2023/04/16 16:11:02;;;;;;;26.98;14.70;;;16.70;99.90;;;;;;4977894;28;20050;-78
2023/04/16 16:13:27;;;;;;;27.42;15.73;;;16.60;99.90;;;;;;4978797;28;20039;-80
2023/04/16 16:15:53;;;;;;;30.02;15.57;;;16.60;99.90;;;;;;4959609;28;20105;-80
2023/04/16 16:18:20;;;;;;;25.90;15.35;;;16.80;99.90;;;;;;4977478;28;20035;-82
2023/04/16 16:20:47;;;;;;;30.58;16.85;;;16.90;99.90;;;;;;4944349;28;20053;-78
2023/04/16 16:23:13;;;;;;;27.95;16.08;;;16.80;99.90;;;;;;4977484;28;20420;-77
2023/04/16 16:25:40;;;;;;;22.70;14.95;;;16.70;99.90;;;;;;4959967;28;20251;-79
2023/04/16 16:28:06;;;;;;;24.15;16.15;;;16.40;99.90;;;;;;4960112;28;20479;-79